sensor_id;sensor_type;location;lat;lon;timestamp;P1;durP1;ratioP1;P2;durP2;ratioP2
28627;SDS011;15815;46.760;19.604;2024-02-21T00:00:21;6.07;;;3.22;;
28627;SDS011;15815;46.760;19.604;2024-02-21T00:02:47;4.30;;;3.08;;
28627;SDS011;15815;46.760;19.604;2024-02-21T00:05:12;4.75;;;3.25;;
28627;SDS011;15815;46.760;19.604;2024-02-21T00:07:45;6.72;;;3.08;;
28627;SDS011;15815;46.760;19.604;2024-02-21T00:10:10;4.45;;;3.50;;
28627;SDS011;15815;46.760;19.604;2024-02-21T00:12:36;5.22;;;3.10;;
28627;SDS011;15815;46.760;19.604;2024-02-21T00:15:18;6.22;;;4.07;;
28627;SDS011;15815;46.760;19.604;2024-02-21T00:17:44;6.35;;;3.17;;
28627;SDS011;15815;46.760;19.604;2024-02-21T00:20:10;4.78;;;3.15;;
28627;SDS011;15815;46.760;19.604;2024-02-21T00:22:44;4.90;;;3.45;;
28627;SDS011;15815;46.760;19.604;2024-02-21T00:25:10;6.35;;;3.22;;
28627;SDS011;15815;46.760;19.604;2024-02-21T00:27:35;6.03;;;3.08;;
28627;SDS011;15815;46.760;19.604;2024-02-21T00:30:16;5.03;;;3.50;;
28627;SDS011;15815;46.760;19.604;2024-02-21T00:32:42;4.75;;;3.30;;
28627;SDS011;15815;46.760;19.604;2024-02-21T00:35:08;4.80;;;3.60;;
28627;SDS011;15815;46.760;19.604;2024-02-21T00:37:37;7.47;;;3.90;;
28627;SDS011;15815;46.760;19.604;2024-02-21T00:40:03;8.60;;;5.38;;
28627;SDS011;15815;46.760;19.604;2024-02-21T00:42:29;12.05;;;8.98;;
28627;SDS011;15815;46.760;19.604;2024-02-21T00:44:54;11.52;;;7.47;;
28627;SDS011;15815;46.760;19.604;2024-02-21T00:50:04;14.52;;;9.40;;
28627;SDS011;15815;46.760;19.604;2024-02-21T00:52:30;10.73;;;8.02;;
28627;SDS011;15815;46.760;19.604;2024-02-21T00:54:56;10.68;;;8.18;;
28627;SDS011;15815;46.760;19.604;2024-02-21T00:57:21;9.50;;;7.45;;
28627;SDS011;15815;46.760;19.604;2024-02-21T00:59:47;11.95;;;7.80;;
28627;SDS011;15815;46.760;19.604;2024-02-21T01:02:12;10.52;;;7.32;;
28627;SDS011;15815;46.760;19.604;2024-02-21T01:04:55;13.27;;;9.30;;
28627;SDS011;15815;46.760;19.604;2024-02-21T01:07:21;13.05;;;10.05;;
28627;SDS011;15815;46.760;19.604;2024-02-21T01:10:01;11.18;;;9.23;;
28627;SDS011;15815;46.760;19.604;2024-02-21T01:12:27;18.13;;;11.52;;
28627;SDS011;15815;46.760;19.604;2024-02-21T01:14:53;9.20;;;6.15;;
28627;SDS011;15815;46.760;19.604;2024-02-21T01:17:18;9.43;;;4.85;;
28627;SDS011;15815;46.760;19.604;2024-02-21T01:22:32;6.80;;;4.07;;
28627;SDS011;15815;46.760;19.604;2024-02-21T01:24:57;5.47;;;3.92;;
28627;SDS011;15815;46.760;19.604;2024-02-21T01:27:30;5.57;;;3.83;;
28627;SDS011;15815;46.760;19.604;2024-02-21T01:29:55;6.50;;;4.18;;
28627;SDS011;15815;46.760;19.604;2024-02-21T01:32:21;8.35;;;4.50;;
28627;SDS011;15815;46.760;19.604;2024-02-21T01:34:47;4.20;;;3.80;;
28627;SDS011;15815;46.760;19.604;2024-02-21T01:37:12;5.05;;;3.90;;
28627;SDS011;15815;46.760;19.604;2024-02-21T01:39:38;6.22;;;3.35;;
28627;SDS011;15815;46.760;19.604;2024-02-21T01:42:11;5.68;;;4.20;;
28627;SDS011;15815;46.760;19.604;2024-02-21T01:44:37;7.95;;;4.05;;
28627;SDS011;15815;46.760;19.604;2024-02-21T01:47:02;5.82;;;4.47;;
28627;SDS011;15815;46.760;19.604;2024-02-21T01:49:29;6.63;;;4.25;;
28627;SDS011;15815;46.760;19.604;2024-02-21T01:51:55;6.40;;;4.07;;
28627;SDS011;15815;46.760;19.604;2024-02-21T01:54:21;4.38;;;3.95;;
28627;SDS011;15815;46.760;19.604;2024-02-21T01:56:51;6.10;;;4.50;;
28627;SDS011;15815;46.760;19.604;2024-02-21T01:59:18;5.15;;;4.03;;
28627;SDS011;15815;46.760;19.604;2024-02-21T02:01:44;4.75;;;3.85;;
28627;SDS011;15815;46.760;19.604;2024-02-21T02:04:22;5.25;;;4.30;;
28627;SDS011;15815;46.760;19.604;2024-02-21T02:06:48;7.18;;;4.30;;
28627;SDS011;15815;46.760;19.604;2024-02-21T02:09:22;6.82;;;5.72;;
28627;SDS011;15815;46.760;19.604;2024-02-21T02:11:47;13.95;;;10.48;;
28627;SDS011;15815;46.760;19.604;2024-02-21T02:14:13;13.35;;;9.15;;
28627;SDS011;15815;46.760;19.604;2024-02-21T02:16:39;13.43;;;11.98;;
28627;SDS011;15815;46.760;19.604;2024-02-21T02:19:05;15.23;;;11.90;;
28627;SDS011;15815;46.760;19.604;2024-02-21T02:21:32;15.85;;;11.05;;
28627;SDS011;15815;46.760;19.604;2024-02-21T02:24:04;15.13;;;11.07;;
28627;SDS011;15815;46.760;19.604;2024-02-21T02:26:30;21.30;;;17.15;;
28627;SDS011;15815;46.760;19.604;2024-02-21T02:28:56;12.25;;;8.73;;
28627;SDS011;15815;46.760;19.604;2024-02-21T02:31:21;14.82;;;9.65;;
28627;SDS011;15815;46.760;19.604;2024-02-21T02:33:48;13.68;;;9.82;;
28627;SDS011;15815;46.760;19.604;2024-02-21T02:36:14;10.45;;;8.38;;
28627;SDS011;15815;46.760;19.604;2024-02-21T02:38:43;14.00;;;9.70;;
28627;SDS011;15815;46.760;19.604;2024-02-21T02:41:09;11.13;;;6.93;;
28627;SDS011;15815;46.760;19.604;2024-02-21T02:43:34;10.45;;;7.28;;
28627;SDS011;15815;46.760;19.604;2024-02-21T02:46:00;7.10;;;4.47;;
28627;SDS011;15815;46.760;19.604;2024-02-21T02:48:31;5.15;;;2.90;;
28627;SDS011;15815;46.760;19.604;2024-02-21T02:50:57;4.45;;;2.33;;
28627;SDS011;15815;46.760;19.604;2024-02-21T02:55:53;4.47;;;2.50;;
28627;SDS011;15815;46.760;19.604;2024-02-21T02:58:18;4.82;;;2.50;;
28627;SDS011;15815;46.760;19.604;2024-02-21T03:00:44;7.28;;;2.83;;
28627;SDS011;15815;46.760;19.604;2024-02-21T03:03:10;4.85;;;2.50;;
28627;SDS011;15815;46.760;19.604;2024-02-21T03:05:35;3.22;;;2.17;;
28627;SDS011;15815;46.760;19.604;2024-02-21T03:08:01;5.13;;;2.20;;
28627;SDS011;15815;46.760;19.604;2024-02-21T03:10:26;4.22;;;2.28;;
28627;SDS011;15815;46.760;19.604;2024-02-21T03:13:07;6.38;;;2.30;;
28627;SDS011;15815;46.760;19.604;2024-02-21T03:15:32;3.27;;;2.27;;
28627;SDS011;15815;46.760;19.604;2024-02-21T03:17:58;4.20;;;1.95;;
28627;SDS011;15815;46.760;19.604;2024-02-21T03:20:38;3.00;;;2.15;;
28627;SDS011;15815;46.760;19.604;2024-02-21T03:23:04;4.32;;;2.50;;
28627;SDS011;15815;46.760;19.604;2024-02-21T03:25:29;3.78;;;2.25;;
28627;SDS011;15815;46.760;19.604;2024-02-21T03:27:59;4.32;;;2.72;;
28627;SDS011;15815;46.760;19.604;2024-02-21T03:30:24;4.55;;;2.28;;
28627;SDS011;15815;46.760;19.604;2024-02-21T03:35:37;10.73;;;8.43;;
28627;SDS011;15815;46.760;19.604;2024-02-21T03:38:03;15.43;;;11.25;;
28627;SDS011;15815;46.760;19.604;2024-02-21T03:40:28;19.02;;;12.63;;
28627;SDS011;15815;46.760;19.604;2024-02-21T03:45:22;17.70;;;13.65;;
28627;SDS011;15815;46.760;19.604;2024-02-21T03:47:48;19.55;;;15.20;;
28627;SDS011;15815;46.760;19.604;2024-02-21T03:50:13;15.52;;;11.90;;
28627;SDS011;15815;46.760;19.604;2024-02-21T03:52:39;17.48;;;12.25;;
28627;SDS011;15815;46.760;19.604;2024-02-21T03:55:17;23.52;;;17.02;;
28627;SDS011;15815;46.760;19.604;2024-02-21T03:57:42;20.00;;;15.52;;
28627;SDS011;15815;46.760;19.604;2024-02-21T04:00:08;8.98;;;5.38;;
28627;SDS011;15815;46.760;19.604;2024-02-21T04:02:47;5.47;;;3.47;;
28627;SDS011;15815;46.760;19.604;2024-02-21T04:05:15;5.22;;;3.10;;
28627;SDS011;15815;46.760;19.604;2024-02-21T04:07:41;5.07;;;2.90;;
28627;SDS011;15815;46.760;19.604;2024-02-21T04:10:06;6.47;;;3.30;;
28627;SDS011;15815;46.760;19.604;2024-02-21T04:12:35;7.25;;;3.10;;
28627;SDS011;15815;46.760;19.604;2024-02-21T04:15:07;3.85;;;2.40;;
28627;SDS011;15815;46.760;19.604;2024-02-21T04:17:33;6.22;;;3.35;;
28627;SDS011;15815;46.760;19.604;2024-02-21T04:20:03;5.40;;;2.90;;
28627;SDS011;15815;46.760;19.604;2024-02-21T04:24:59;6.43;;;2.50;;
28627;SDS011;15815;46.760;19.604;2024-02-21T04:27:26;6.28;;;3.05;;
28627;SDS011;15815;46.760;19.604;2024-02-21T04:29:52;3.67;;;2.58;;
28627;SDS011;15815;46.760;19.604;2024-02-21T04:32:18;6.20;;;2.42;;
28627;SDS011;15815;46.760;19.604;2024-02-21T04:34:43;6.78;;;2.70;;
28627;SDS011;15815;46.760;19.604;2024-02-21T04:37:09;5.18;;;2.47;;
28627;SDS011;15815;46.760;19.604;2024-02-21T04:39:35;5.53;;;2.10;;
28627;SDS011;15815;46.760;19.604;2024-02-21T04:42:00;4.78;;;2.30;;
28627;SDS011;15815;46.760;19.604;2024-02-21T04:44:26;5.18;;;2.28;;
28627;SDS011;15815;46.760;19.604;2024-02-21T04:46:51;4.97;;;2.03;;
28627;SDS011;15815;46.760;19.604;2024-02-21T04:49:17;4.30;;;2.08;;
28627;SDS011;15815;46.760;19.604;2024-02-21T04:51:42;4.45;;;2.30;;
28627;SDS011;15815;46.760;19.604;2024-02-21T04:54:08;7.63;;;3.67;;
28627;SDS011;15815;46.760;19.604;2024-02-21T04:56:34;11.50;;;5.45;;
28627;SDS011;15815;46.760;19.604;2024-02-21T04:58:59;13.52;;;5.05;;
28627;SDS011;15815;46.760;19.604;2024-02-21T05:04:20;3.85;;;2.72;;
28627;SDS011;15815;46.760;19.604;2024-02-21T05:06:45;5.05;;;2.35;;
28627;SDS011;15815;46.760;19.604;2024-02-21T05:09:11;6.13;;;3.38;;
28627;SDS011;15815;46.760;19.604;2024-02-21T05:11:46;22.83;;;14.65;;
28627;SDS011;15815;46.760;19.604;2024-02-21T05:14:12;16.27;;;12.00;;
28627;SDS011;15815;46.760;19.604;2024-02-21T05:16:53;26.73;;;15.05;;
28627;SDS011;15815;46.760;19.604;2024-02-21T05:19:19;20.02;;;13.35;;
28627;SDS011;15815;46.760;19.604;2024-02-21T05:21:56;20.77;;;13.60;;
28627;SDS011;15815;46.760;19.604;2024-02-21T05:24:22;23.35;;;14.93;;
28627;SDS011;15815;46.760;19.604;2024-02-21T05:26:47;33.25;;;19.45;;
28627;SDS011;15815;46.760;19.604;2024-02-21T05:29:13;28.23;;;17.33;;
28627;SDS011;15815;46.760;19.604;2024-02-21T05:34:30;27.88;;;16.00;;
28627;SDS011;15815;46.760;19.604;2024-02-21T05:37:13;20.67;;;13.38;;
28627;SDS011;15815;46.760;19.604;2024-02-21T05:39:38;34.63;;;19.13;;
28627;SDS011;15815;46.760;19.604;2024-02-21T05:42:16;33.47;;;18.30;;
28627;SDS011;15815;46.760;19.604;2024-02-21T05:44:41;26.00;;;17.15;;
28627;SDS011;15815;46.760;19.604;2024-02-21T05:47:07;20.10;;;11.23;;
28627;SDS011;15815;46.760;19.604;2024-02-21T05:49:33;15.02;;;7.07;;
28627;SDS011;15815;46.760;19.604;2024-02-21T05:51:58;15.63;;;8.43;;
28627;SDS011;15815;46.760;19.604;2024-02-21T05:54:24;20.08;;;8.68;;
28627;SDS011;15815;46.760;19.604;2024-02-21T05:56:50;19.38;;;7.47;;
28627;SDS011;15815;46.760;19.604;2024-02-21T05:59:16;17.08;;;6.32;;
28627;SDS011;15815;46.760;19.604;2024-02-21T06:01:45;11.38;;;5.80;;
28627;SDS011;15815;46.760;19.604;2024-02-21T06:04:10;16.40;;;7.25;;
28627;SDS011;15815;46.760;19.604;2024-02-21T06:06:36;11.32;;;7.18;;
28627;SDS011;15815;46.760;19.604;2024-02-21T06:09:01;11.05;;;5.22;;
28627;SDS011;15815;46.760;19.604;2024-02-21T06:11:27;10.57;;;4.50;;
28627;SDS011;15815;46.760;19.604;2024-02-21T06:13:53;10.07;;;5.60;;
28627;SDS011;15815;46.760;19.604;2024-02-21T06:16:27;9.98;;;4.30;;
28627;SDS011;15815;46.760;19.604;2024-02-21T06:18:52;9.20;;;5.07;;
28627;SDS011;15815;46.760;19.604;2024-02-21T06:21:18;5.47;;;3.72;;
28627;SDS011;15815;46.760;19.604;2024-02-21T06:23:50;6.50;;;2.90;;
28627;SDS011;15815;46.760;19.604;2024-02-21T06:28:41;6.15;;;3.50;;
28627;SDS011;15815;46.760;19.604;2024-02-21T06:31:06;9.00;;;4.68;;
28627;SDS011;15815;46.760;19.604;2024-02-21T06:33:32;6.10;;;3.97;;
28627;SDS011;15815;46.760;19.604;2024-02-21T06:35:57;5.82;;;2.85;;
28627;SDS011;15815;46.760;19.604;2024-02-21T06:38:23;4.13;;;3.05;;
28627;SDS011;15815;46.760;19.604;2024-02-21T06:40:48;6.07;;;4.72;;
28627;SDS011;15815;46.760;19.604;2024-02-21T06:45:46;8.15;;;3.58;;
28627;SDS011;15815;46.760;19.604;2024-02-21T06:48:11;9.52;;;6.30;;
28627;SDS011;15815;46.760;19.604;2024-02-21T06:50:37;7.35;;;5.05;;
28627;SDS011;15815;46.760;19.604;2024-02-21T06:53:03;13.10;;;6.65;;
28627;SDS011;15815;46.760;19.604;2024-02-21T06:55:29;13.68;;;6.75;;
28627;SDS011;15815;46.760;19.604;2024-02-21T06:57:56;12.07;;;9.02;;
28627;SDS011;15815;46.760;19.604;2024-02-21T07:00:22;16.60;;;10.68;;
28627;SDS011;15815;46.760;19.604;2024-02-21T07:02:48;17.13;;;8.07;;
28627;SDS011;15815;46.760;19.604;2024-02-21T07:07:43;10.43;;;7.32;;
28627;SDS011;15815;46.760;19.604;2024-02-21T07:10:09;4.70;;;2.85;;
28627;SDS011;15815;46.760;19.604;2024-02-21T07:12:34;5.85;;;3.58;;
28627;SDS011;15815;46.760;19.604;2024-02-21T07:15:00;4.10;;;2.30;;
28627;SDS011;15815;46.760;19.604;2024-02-21T07:17:25;3.25;;;1.63;;
28627;SDS011;15815;46.760;19.604;2024-02-21T07:19:51;4.13;;;2.88;;
28627;SDS011;15815;46.760;19.604;2024-02-21T07:22:17;7.03;;;2.53;;
28627;SDS011;15815;46.760;19.604;2024-02-21T07:24:42;5.35;;;2.80;;
28627;SDS011;15815;46.760;19.604;2024-02-21T07:27:08;5.55;;;3.25;;
28627;SDS011;15815;46.760;19.604;2024-02-21T07:29:33;4.15;;;2.25;;
28627;SDS011;15815;46.760;19.604;2024-02-21T07:31:59;5.03;;;2.33;;
28627;SDS011;15815;46.760;19.604;2024-02-21T07:34:25;3.78;;;1.45;;
28627;SDS011;15815;46.760;19.604;2024-02-21T07:36:50;4.70;;;1.20;;
28627;SDS011;15815;46.760;19.604;2024-02-21T07:39:16;2.80;;;1.15;;
28627;SDS011;15815;46.760;19.604;2024-02-21T07:41:41;2.92;;;1.15;;
28627;SDS011;15815;46.760;19.604;2024-02-21T07:44:07;2.90;;;1.10;;
28627;SDS011;15815;46.760;19.604;2024-02-21T07:46:32;4.90;;;1.35;;
28627;SDS011;15815;46.760;19.604;2024-02-21T07:48:58;5.75;;;1.27;;
28627;SDS011;15815;46.760;19.604;2024-02-21T07:51:27;2.03;;;1.35;;
28627;SDS011;15815;46.760;19.604;2024-02-21T07:53:53;3.30;;;2.00;;
28627;SDS011;15815;46.760;19.604;2024-02-21T07:56:18;4.93;;;1.60;;
28627;SDS011;15815;46.760;19.604;2024-02-21T07:58:44;2.35;;;1.27;;
28627;SDS011;15815;46.760;19.604;2024-02-21T08:01:10;2.83;;;1.63;;
28627;SDS011;15815;46.760;19.604;2024-02-21T08:03:36;2.88;;;1.20;;
28627;SDS011;15815;46.760;19.604;2024-02-21T08:06:11;4.10;;;1.15;;
28627;SDS011;15815;46.760;19.604;2024-02-21T08:08:37;1.88;;;1.13;;
28627;SDS011;15815;46.760;19.604;2024-02-21T08:11:03;2.30;;;1.10;;
28627;SDS011;15815;46.760;19.604;2024-02-21T08:13:28;3.90;;;1.85;;
28627;SDS011;15815;46.760;19.604;2024-02-21T08:15:54;2.38;;;1.08;;
28627;SDS011;15815;46.760;19.604;2024-02-21T08:18:22;2.58;;;1.17;;
28627;SDS011;15815;46.760;19.604;2024-02-21T08:20:48;3.00;;;1.30;;
28627;SDS011;15815;46.760;19.604;2024-02-21T08:23:18;2.55;;;1.25;;
28627;SDS011;15815;46.760;19.604;2024-02-21T08:25:44;8.38;;;1.52;;
28627;SDS011;15815;46.760;19.604;2024-02-21T08:28:09;7.03;;;1.75;;
28627;SDS011;15815;46.760;19.604;2024-02-21T08:30:35;4.45;;;2.00;;
28627;SDS011;15815;46.760;19.604;2024-02-21T08:33:01;4.13;;;1.60;;
28627;SDS011;15815;46.760;19.604;2024-02-21T08:35:26;3.97;;;1.70;;
28627;SDS011;15815;46.760;19.604;2024-02-21T08:37:52;5.18;;;3.20;;
28627;SDS011;15815;46.760;19.604;2024-02-21T08:40:17;2.22;;;1.13;;
28627;SDS011;15815;46.760;19.604;2024-02-21T08:42:43;4.78;;;1.90;;
28627;SDS011;15815;46.760;19.604;2024-02-21T08:45:13;3.10;;;1.30;;
28627;SDS011;15815;46.760;19.604;2024-02-21T08:47:39;3.70;;;1.50;;
28627;SDS011;15815;46.760;19.604;2024-02-21T08:50:05;4.20;;;1.25;;
28627;SDS011;15815;46.760;19.604;2024-02-21T08:52:31;3.17;;;1.70;;
28627;SDS011;15815;46.760;19.604;2024-02-21T08:54:57;5.53;;;1.70;;
28627;SDS011;15815;46.760;19.604;2024-02-21T08:57:22;2.83;;;1.13;;
28627;SDS011;15815;46.760;19.604;2024-02-21T08:59:51;1.65;;;1.42;;
28627;SDS011;15815;46.760;19.604;2024-02-21T09:02:16;4.45;;;1.50;;
28627;SDS011;15815;46.760;19.604;2024-02-21T09:04:52;9.88;;;2.00;;
28627;SDS011;15815;46.760;19.604;2024-02-21T09:07:18;7.97;;;4.20;;
28627;SDS011;15815;46.760;19.604;2024-02-21T09:09:44;4.45;;;2.55;;
28627;SDS011;15815;46.760;19.604;2024-02-21T09:12:18;4.38;;;1.80;;
28627;SDS011;15815;46.760;19.604;2024-02-21T09:14:44;4.07;;;1.83;;
28627;SDS011;15815;46.760;19.604;2024-02-21T09:17:09;9.88;;;6.47;;
28627;SDS011;15815;46.760;19.604;2024-02-21T09:22:13;4.38;;;1.23;;
28627;SDS011;15815;46.760;19.604;2024-02-21T09:24:49;3.42;;;1.60;;
28627;SDS011;15815;46.760;19.604;2024-02-21T09:27:17;3.45;;;1.10;;
28627;SDS011;15815;46.760;19.604;2024-02-21T09:29:43;7.43;;;1.33;;
28627;SDS011;15815;46.760;19.604;2024-02-21T09:32:08;2.60;;;1.08;;
28627;SDS011;15815;46.760;19.604;2024-02-21T09:37:21;4.95;;;1.23;;
28627;SDS011;15815;46.760;19.604;2024-02-21T09:39:47;4.05;;;1.23;;
28627;SDS011;15815;46.760;19.604;2024-02-21T09:44:45;3.00;;;0.90;;
28627;SDS011;15815;46.760;19.604;2024-02-21T09:47:18;4.35;;;1.23;;
28627;SDS011;15815;46.760;19.604;2024-02-21T09:52:16;3.63;;;1.45;;
28627;SDS011;15815;46.760;19.604;2024-02-21T09:54:42;2.70;;;1.10;;
28627;SDS011;15815;46.760;19.604;2024-02-21T09:57:09;1.95;;;1.10;;
28627;SDS011;15815;46.760;19.604;2024-02-21T09:59:34;2.78;;;1.33;;
28627;SDS011;15815;46.760;19.604;2024-02-21T10:04:46;1.73;;;1.08;;
28627;SDS011;15815;46.760;19.604;2024-02-21T10:07:21;3.22;;;1.02;;
28627;SDS011;15815;46.760;19.604;2024-02-21T10:09:47;2.53;;;1.10;;
28627;SDS011;15815;46.760;19.604;2024-02-21T10:12:13;3.05;;;1.58;;
28627;SDS011;15815;46.760;19.604;2024-02-21T10:14:38;1.33;;;0.77;;
28627;SDS011;15815;46.760;19.604;2024-02-21T10:17:04;4.78;;;1.13;;
28627;SDS011;15815;46.760;19.604;2024-02-21T10:19:36;2.92;;;1.13;;
28627;SDS011;15815;46.760;19.604;2024-02-21T10:22:05;3.45;;;1.30;;
28627;SDS011;15815;46.760;19.604;2024-02-21T10:27:08;3.22;;;2.53;;
28627;SDS011;15815;46.760;19.604;2024-02-21T10:29:35;4.80;;;1.45;;
28627;SDS011;15815;46.760;19.604;2024-02-21T10:32:07;5.60;;;2.13;;
28627;SDS011;15815;46.760;19.604;2024-02-21T10:37:46;6.60;;;2.17;;
28627;SDS011;15815;46.760;19.604;2024-02-21T10:40:12;2.10;;;1.00;;
28627;SDS011;15815;46.760;19.604;2024-02-21T10:45:12;3.40;;;1.20;;
28627;SDS011;15815;46.760;19.604;2024-02-21T10:47:37;3.85;;;1.10;;
28627;SDS011;15815;46.760;19.604;2024-02-21T10:50:05;11.30;;;3.95;;
28627;SDS011;15815;46.760;19.604;2024-02-21T10:55:27;4.65;;;1.60;;
28627;SDS011;15815;46.760;19.604;2024-02-21T10:58:03;6.13;;;1.00;;
28627;SDS011;15815;46.760;19.604;2024-02-21T11:00:31;3.67;;;1.55;;
28627;SDS011;15815;46.760;19.604;2024-02-21T11:02:59;2.55;;;1.50;;
28627;SDS011;15815;46.760;19.604;2024-02-21T11:05:25;2.55;;;0.90;;
28627;SDS011;15815;46.760;19.604;2024-02-21T11:07:52;2.25;;;0.90;;
28627;SDS011;15815;46.760;19.604;2024-02-21T11:10:24;2.15;;;0.88;;
28627;SDS011;15815;46.760;19.604;2024-02-21T11:13:09;3.22;;;1.05;;
28627;SDS011;15815;46.760;19.604;2024-02-21T11:15:38;4.25;;;0.98;;
28627;SDS011;15815;46.760;19.604;2024-02-21T11:18:04;3.17;;;1.27;;
28627;SDS011;15815;46.760;19.604;2024-02-21T11:20:34;2.60;;;0.90;;
28627;SDS011;15815;46.760;19.604;2024-02-21T11:23:00;3.17;;;1.13;;
28627;SDS011;15815;46.760;19.604;2024-02-21T11:28:01;4.18;;;1.83;;
28627;SDS011;15815;46.760;19.604;2024-02-21T11:30:31;1.50;;;0.95;;
28627;SDS011;15815;46.760;19.604;2024-02-21T11:33:05;3.00;;;1.05;;
28627;SDS011;15815;46.760;19.604;2024-02-21T11:35:33;2.42;;;1.13;;
28627;SDS011;15815;46.760;19.604;2024-02-21T11:38:10;4.63;;;1.52;;
28627;SDS011;15815;46.760;19.604;2024-02-21T11:40:44;2.78;;;1.15;;
28627;SDS011;15815;46.760;19.604;2024-02-21T11:43:11;2.50;;;1.70;;
28627;SDS011;15815;46.760;19.604;2024-02-21T11:45:48;5.13;;;1.98;;
28627;SDS011;15815;46.760;19.604;2024-02-21T11:48:13;4.63;;;1.80;;
28627;SDS011;15815;46.760;19.604;2024-02-21T11:50:39;3.55;;;1.13;;
28627;SDS011;15815;46.760;19.604;2024-02-21T11:53:05;3.97;;;1.70;;
28627;SDS011;15815;46.760;19.604;2024-02-21T11:55:31;2.38;;;1.15;;
28627;SDS011;15815;46.760;19.604;2024-02-21T11:57:56;4.53;;;2.40;;
28627;SDS011;15815;46.760;19.604;2024-02-21T12:00:22;4.55;;;1.20;;
28627;SDS011;15815;46.760;19.604;2024-02-21T12:02:48;4.70;;;2.42;;
28627;SDS011;15815;46.760;19.604;2024-02-21T12:05:15;2.88;;;2.35;;
28627;SDS011;15815;46.760;19.604;2024-02-21T12:07:41;3.08;;;1.17;;
28627;SDS011;15815;46.760;19.604;2024-02-21T12:10:10;3.72;;;0.90;;
28627;SDS011;15815;46.760;19.604;2024-02-21T12:12:37;3.45;;;1.20;;
28627;SDS011;15815;46.760;19.604;2024-02-21T12:15:06;3.63;;;1.15;;
28627;SDS011;15815;46.760;19.604;2024-02-21T12:17:33;5.03;;;1.50;;
28627;SDS011;15815;46.760;19.604;2024-02-21T12:20:05;1.88;;;1.10;;
28627;SDS011;15815;46.760;19.604;2024-02-21T12:22:32;5.95;;;1.58;;
28627;SDS011;15815;46.760;19.604;2024-02-21T12:24:58;3.17;;;1.27;;
28627;SDS011;15815;46.760;19.604;2024-02-21T12:27:30;3.80;;;1.27;;
28627;SDS011;15815;46.760;19.604;2024-02-21T12:29:56;3.97;;;1.70;;
28627;SDS011;15815;46.760;19.604;2024-02-21T12:32:21;3.90;;;1.52;;
28627;SDS011;15815;46.760;19.604;2024-02-21T12:34:47;6.75;;;2.72;;
28627;SDS011;15815;46.760;19.604;2024-02-21T12:37:13;6.88;;;2.38;;
28627;SDS011;15815;46.760;19.604;2024-02-21T12:39:39;5.13;;;2.08;;
28627;SDS011;15815;46.760;19.604;2024-02-21T12:42:05;10.18;;;6.95;;
28627;SDS011;15815;46.760;19.604;2024-02-21T12:44:30;4.47;;;2.03;;
28627;SDS011;15815;46.760;19.604;2024-02-21T12:46:58;4.57;;;2.65;;
28627;SDS011;15815;46.760;19.604;2024-02-21T12:49:24;3.45;;;1.73;;
28627;SDS011;15815;46.760;19.604;2024-02-21T12:51:50;4.53;;;1.20;;
28627;SDS011;15815;46.760;19.604;2024-02-21T12:56:54;5.47;;;1.48;;
28627;SDS011;15815;46.760;19.604;2024-02-21T12:59:20;5.72;;;1.92;;
28627;SDS011;15815;46.760;19.604;2024-02-21T13:01:55;3.08;;;1.55;;
28627;SDS011;15815;46.760;19.604;2024-02-21T13:04:21;2.72;;;1.33;;
28627;SDS011;15815;46.760;19.604;2024-02-21T13:06:54;4.93;;;1.52;;
28627;SDS011;15815;46.760;19.604;2024-02-21T13:09:20;3.92;;;1.60;;
28627;SDS011;15815;46.760;19.604;2024-02-21T13:11:45;5.28;;;1.80;;
28627;SDS011;15815;46.760;19.604;2024-02-21T13:14:19;2.78;;;1.70;;
28627;SDS011;15815;46.760;19.604;2024-02-21T13:16:45;5.93;;;1.73;;
28627;SDS011;15815;46.760;19.604;2024-02-21T13:19:10;6.60;;;1.40;;
28627;SDS011;15815;46.760;19.604;2024-02-21T13:21:36;7.78;;;1.92;;
28627;SDS011;15815;46.760;19.604;2024-02-21T13:24:02;3.20;;;1.27;;
28627;SDS011;15815;46.760;19.604;2024-02-21T13:29:32;7.82;;;1.80;;
28627;SDS011;15815;46.760;19.604;2024-02-21T13:31:58;8.55;;;2.05;;
28627;SDS011;15815;46.760;19.604;2024-02-21T13:36:56;14.73;;;4.50;;
28627;SDS011;15815;46.760;19.604;2024-02-21T13:39:22;10.27;;;4.47;;
28627;SDS011;15815;46.760;19.604;2024-02-21T13:41:47;13.15;;;3.38;;
28627;SDS011;15815;46.760;19.604;2024-02-21T13:44:17;7.57;;;1.95;;
28627;SDS011;15815;46.760;19.604;2024-02-21T13:46:42;4.30;;;1.73;;
28627;SDS011;15815;46.760;19.604;2024-02-21T13:49:08;5.00;;;1.30;;
28627;SDS011;15815;46.760;19.604;2024-02-21T13:51:34;3.85;;;1.10;;
28627;SDS011;15815;46.760;19.604;2024-02-21T13:54:03;6.13;;;1.40;;
28627;SDS011;15815;46.760;19.604;2024-02-21T13:56:31;2.80;;;1.45;;
28627;SDS011;15815;46.760;19.604;2024-02-21T13:58:57;5.43;;;1.70;;
28627;SDS011;15815;46.760;19.604;2024-02-21T14:01:24;4.35;;;1.80;;
28627;SDS011;15815;46.760;19.604;2024-02-21T14:03:49;4.65;;;2.00;;
28627;SDS011;15815;46.760;19.604;2024-02-21T14:06:18;4.50;;;2.00;;
28627;SDS011;15815;46.760;19.604;2024-02-21T14:08:56;5.72;;;1.98;;
28627;SDS011;15815;46.760;19.604;2024-02-21T14:11:21;15.45;;;8.00;;
28627;SDS011;15815;46.760;19.604;2024-02-21T14:13:47;8.73;;;4.07;;
28627;SDS011;15815;46.760;19.604;2024-02-21T14:16:12;11.90;;;7.18;;
28627;SDS011;15815;46.760;19.604;2024-02-21T14:18:41;7.10;;;3.10;;
28627;SDS011;15815;46.760;19.604;2024-02-21T14:21:06;8.43;;;2.67;;
28627;SDS011;15815;46.760;19.604;2024-02-21T14:23:32;7.15;;;2.95;;
28627;SDS011;15815;46.760;19.604;2024-02-21T14:25:57;8.50;;;3.83;;
28627;SDS011;15815;46.760;19.604;2024-02-21T14:28:23;9.23;;;3.60;;
28627;SDS011;15815;46.760;19.604;2024-02-21T14:30:49;10.30;;;4.50;;
28627;SDS011;15815;46.760;19.604;2024-02-21T14:36:08;11.20;;;6.65;;
28627;SDS011;15815;46.760;19.604;2024-02-21T14:38:33;10.63;;;4.45;;
28627;SDS011;15815;46.760;19.604;2024-02-21T14:41:03;13.27;;;4.43;;
28627;SDS011;15815;46.760;19.604;2024-02-21T14:43:29;9.02;;;3.75;;
28627;SDS011;15815;46.760;19.604;2024-02-21T14:45:54;11.15;;;5.03;;
28627;SDS011;15815;46.760;19.604;2024-02-21T14:48:20;10.90;;;3.95;;
28627;SDS011;15815;46.760;19.604;2024-02-21T14:50:46;15.63;;;4.60;;
28627;SDS011;15815;46.760;19.604;2024-02-21T14:53:11;11.80;;;4.07;;
28627;SDS011;15815;46.760;19.604;2024-02-21T14:55:37;6.63;;;2.85;;
28627;SDS011;15815;46.760;19.604;2024-02-21T14:58:03;8.70;;;3.40;;
28627;SDS011;15815;46.760;19.604;2024-02-21T15:00:30;15.32;;;4.63;;
28627;SDS011;15815;46.760;19.604;2024-02-21T15:02:59;12.30;;;4.85;;
28627;SDS011;15815;46.760;19.604;2024-02-21T15:05:25;15.20;;;4.63;;
28627;SDS011;15815;46.760;19.604;2024-02-21T15:07:51;18.63;;;4.72;;
28627;SDS011;15815;46.760;19.604;2024-02-21T15:10:22;13.48;;;5.45;;
28627;SDS011;15815;46.760;19.604;2024-02-21T15:12:47;8.15;;;3.65;;
28627;SDS011;15815;46.760;19.604;2024-02-21T15:15:24;10.45;;;3.80;;
28627;SDS011;15815;46.760;19.604;2024-02-21T15:17:50;7.85;;;4.05;;
28627;SDS011;15815;46.760;19.604;2024-02-21T15:20:15;9.13;;;4.60;;
28627;SDS011;15815;46.760;19.604;2024-02-21T15:22:41;12.23;;;3.85;;
28627;SDS011;15815;46.760;19.604;2024-02-21T15:25:14;9.07;;;4.00;;
28627;SDS011;15815;46.760;19.604;2024-02-21T15:27:46;15.20;;;5.15;;
28627;SDS011;15815;46.760;19.604;2024-02-21T15:30:12;20.63;;;7.80;;
28627;SDS011;15815;46.760;19.604;2024-02-21T15:32:38;27.90;;;10.32;;
28627;SDS011;15815;46.760;19.604;2024-02-21T15:35:05;31.77;;;13.90;;
28627;SDS011;15815;46.760;19.604;2024-02-21T15:37:31;42.60;;;15.70;;